Time;durP1;ratioP1;P1;durP2;ratioP2;P2;SDS_P1;SDS_P2;PMS_P1;PMS_P2;Temp;Humidity;BMP_temperature;BMP_pressure;BME280_temperature;BME280_humidity;BME280_pressure;Samples;Min_cycle;Max_cycle;Signal;HPM_P1;HPM_P2
2021/09/29 00:01:40;;;;;;;7.00;6.30;;;;;;;;;;4977237;28;20414;-69
2021/09/29 00:04:06;;;;;;;10.40;6.03;;;;;;;;;;4977531;28;20549;-69
2021/09/29 00:06:32;;;;;;;8.27;7.23;;;;;;;;;;4977199;28;20834;-69
2021/09/29 00:08:58;;;;;;;11.67;6.90;;;;;;;;;;4977057;28;20506;-68
2021/09/29 00:11:24;;;;;;;7.33;6.30;;;;;;;;;;4976986;28;20785;-68
2021/09/29 00:16:53;;;;;;;7.07;6.37;;;;;;;;;;4977015;28;20465;-69
2021/09/29 00:19:19;;;;;;;8.20;6.13;;;;;;;;;;4977002;28;20561;-68
2021/09/29 00:21:45;;;;;;;8.70;6.87;;;;;;;;;;4976946;28;20410;-68
2021/09/29 00:24:11;;;;;;;6.53;5.37;;;;;;;;;;4977151;28;20425;-69
2021/09/29 00:26:37;;;;;;;6.70;5.90;;;;;;;;;;4976865;28;20498;-69
2021/09/29 00:32:07;;;;;;;7.23;6.53;;;;;;;;;;4976733;28;20513;-69
2021/09/29 00:34:36;;;;;;;8.07;6.87;;;;;;;;;;4976887;28;20406;-69
2021/09/29 00:37:02;;;;;;;6.30;5.80;;;;;;;;;;4976940;28;20414;-67
2021/09/29 00:39:28;;;;;;;6.43;5.83;;;;;;;;;;4976764;28;20548;-69
2021/09/29 00:41:56;;;;;;;6.50;5.90;;;;;;;;;;4976448;28;20824;-68
2021/09/29 00:47:27;;;;;;;11.50;6.57;;;;;;;;;;4976392;28;20500;-68
2021/09/29 00:49:54;;;;;;;7.47;6.57;;;;;;;;;;4976546;28;20440;-68
2021/09/29 00:52:20;;;;;;;8.20;6.37;;;;;;;;;;4976421;28;20426;-68
2021/09/29 00:54:46;;;;;;;7.13;6.27;;;;;;;;;;4976037;28;20473;-69
2021/09/29 00:57:12;;;;;;;7.93;6.60;;;;;;;;;;4974807;28;20430;-69
2021/09/29 00:59:37;;;;;;;7.67;6.27;;;;;;;;;;4975977;28;21036;-69
2021/09/29 01:02:04;;;;;;;7.70;6.40;;;;;;;;;;4976130;28;20447;-69
2021/09/29 01:04:30;;;;;;;8.63;6.57;;;;;;;;;;4976383;28;20775;-69
2021/09/29 01:07:08;;;;;;;7.33;6.63;;;;;;;;;;4976046;28;20427;-69
2021/09/29 01:09:34;;;;;;;6.40;5.80;;;;;;;;;;4976074;28;20427;-69
2021/09/29 01:12:02;;;;;;;6.67;5.97;;;;;;;;;;4974986;28;20473;-69
2021/09/29 01:17:33;;;;;;;6.40;5.50;;;;;;;;;;4975767;28;20413;-69
2021/09/29 01:19:59;;;;;;;7.20;6.50;;;;;;;;;;4976073;28;20423;-68
2021/09/29 01:22:44;;;;;;;7.17;5.90;;;;;;;;;;4975777;28;20406;-69
2021/09/29 01:25:17;;;;;;;8.37;6.70;;;;;;;;;;4975635;28;20943;-69
2021/09/29 01:27:45;;;;;;;7.00;5.50;;;;;;;;;;4975452;28;20506;-69
2021/09/29 01:30:11;;;;;;;7.40;6.60;;;;;;;;;;4974194;28;20621;-69
2021/09/29 01:32:38;;;;;;;6.20;5.60;;;;;;;;;;4975523;28;20846;-70
2021/09/29 01:35:04;;;;;;;6.73;6.13;;;;;;;;;;4975471;28;20486;-69
2021/09/29 01:37:30;;;;;;;7.07;5.60;;;;;;;;;;4975371;28;20426;-69
2021/09/29 01:39:56;;;;;;;7.50;6.70;;;;;;;;;;4975481;28;20418;-69
2021/09/29 01:42:23;;;;;;;7.87;6.30;;;;;;;;;;4975347;28;20718;-69
2021/09/29 01:44:49;;;;;;;7.53;5.83;;;;;;;;;;4975100;28;20422;-69
2021/09/29 01:47:15;;;;;;;8.37;6.70;;;;;;;;;;4975103;28;20881;-69
2021/09/29 01:49:45;;;;;;;6.30;5.70;;;;;;;;;;4975350;28;20439;-69
2021/09/29 01:52:12;;;;;;;7.30;6.13;;;;;;;;;;4975250;28;20429;-70
2021/09/29 01:54:47;;;;;;;6.80;6.10;;;;;;;;;;4975042;28;20964;-69
2021/09/29 01:57:13;;;;;;;10.03;6.80;;;;;;;;;;4975237;28;20789;-69
2021/09/29 02:02:43;;;;;;;6.70;5.80;;;;;;;;;;4974951;28;20475;-70
2021/09/29 02:05:10;;;;;;;8.67;6.40;;;;;;;;;;4975005;28;20441;-70
2021/09/29 02:07:36;;;;;;;7.70;7.00;;;;;;;;;;4974977;28;20426;-69
2021/09/29 02:10:03;;;;;;;7.30;6.60;;;;;;;;;;4974825;28;20422;-69
2021/09/29 02:12:30;;;;;;;8.10;6.77;;;;;;;;;;4974977;28;20431;-70
2021/09/29 02:14:56;;;;;;;8.17;6.90;;;;;;;;;;4974936;28;20422;-70
2021/09/29 02:17:22;;;;;;;7.80;6.30;;;;;;;;;;4974782;28;20473;-69
2021/09/29 02:19:48;;;;;;;7.60;6.70;;;;;;;;;;4974869;28;20430;-69
2021/09/29 02:22:16;;;;;;;7.60;6.90;;;;;;;;;;4974678;28;20446;-68
2021/09/29 02:24:42;;;;;;;9.43;8.20;;;;;;;;;;4974932;28;20461;-69
2021/09/29 02:27:08;;;;;;;7.63;6.37;;;;;;;;;;4974664;28;20425;-69
2021/09/29 02:32:38;;;;;;;7.17;6.23;;;;;;;;;;4974483;28;20413;-69
2021/09/29 02:35:05;;;;;;;6.37;5.87;;;;;;;;;;4974347;28;20498;-69
2021/09/29 02:37:31;;;;;;;9.13;6.07;;;;;;;;;;4974240;28;20414;-69
2021/09/29 02:39:57;;;;;;;9.17;7.53;;;;;;;;;;4974363;28;20916;-70
2021/09/29 02:42:23;;;;;;;10.13;6.50;;;;;;;;;;4974214;28;20490;-69
2021/09/29 02:47:52;;;;;;;6.50;5.73;;;;;;;;;;4974095;28;20948;-69
2021/09/29 02:50:18;;;;;;;7.50;6.50;;;;;;;;;;4974260;28;20420;-70
2021/09/29 02:52:44;;;;;;;8.30;6.37;;;;;;;;;;4973838;28;20411;-69
2021/09/29 02:55:11;;;;;;;8.90;6.47;;;;;;;;;;4974273;28;20467;-69
2021/09/29 02:57:37;;;;;;;6.10;5.50;;;;;;;;;;4974164;28;20769;-69
2021/09/29 03:03:09;;;;;;;8.43;6.83;;;;;;;;;;4974077;28;20546;-70
2021/09/29 03:05:35;;;;;;;9.57;6.60;;;;;;;;;;4974303;28;20414;-70
2021/09/29 03:08:01;;;;;;;8.10;6.80;;;;;;;;;;4974028;28;20410;-70
2021/09/29 03:10:27;;;;;;;7.13;6.30;;;;;;;;;;4974034;28;20418;-69
2021/09/29 03:12:53;;;;;;;9.33;6.80;;;;;;;;;;4973913;28;20441;-70
2021/09/29 03:15:19;;;;;;;6.50;5.90;;;;;;;;;;4974032;28;20426;-69
2021/09/29 03:17:45;;;;;;;7.90;7.10;;;;;;;;;;4974063;28;20509;-69
2021/09/29 03:20:11;;;;;;;7.60;6.00;;;;;;;;;;4974038;28;20426;-70
2021/09/29 03:22:37;;;;;;;7.70;6.90;;;;;;;;;;4974084;28;20427;-68
2021/09/29 03:25:04;;;;;;;6.70;6.10;;;;;;;;;;4974127;28;20788;-69
2021/09/29 03:27:30;;;;;;;7.50;6.80;;;;;;;;;;4973852;28;20542;-68
2021/09/29 03:32:59;;;;;;;11.30;7.23;;;;;;;;;;4973947;28;20417;-69
2021/09/29 03:35:25;;;;;;;7.63;6.93;;;;;;;;;;4976689;28;20433;-69
2021/09/29 03:37:51;;;;;;;12.33;7.17;;;;;;;;;;4977699;28;20469;-68
2021/09/29 03:40:18;;;;;;;7.10;6.50;;;;;;;;;;4977787;28;20881;-69
2021/09/29 03:42:44;;;;;;;8.60;7.23;;;;;;;;;;4977560;28;20406;-69
2021/09/29 03:48:14;;;;;;;10.13;6.83;;;;;;;;;;4977510;28;20437;-69
2021/09/29 03:50:40;;;;;;;8.20;6.90;;;;;;;;;;4977812;28;20415;-70
2021/09/29 03:53:06;;;;;;;10.80;7.57;;;;;;;;;;4977524;28;20461;-70
2021/09/29 03:55:31;;;;;;;6.93;5.80;;;;;;;;;;4977158;28;20477;-69
2021/09/29 03:57:57;;;;;;;8.50;7.37;;;;;;;;;;4977489;28;20484;-68
2021/09/29 04:03:27;;;;;;;7.00;6.40;;;;;;;;;;4977351;28;20414;-68
2021/09/29 04:05:53;;;;;;;7.37;6.63;;;;;;;;;;4977438;28;20422;-69
2021/09/29 04:08:19;;;;;;;7.53;5.60;;;;;;;;;;4977281;28;20430;-68
2021/09/29 04:10:45;;;;;;;10.47;6.80;;;;;;;;;;4977261;28;20824;-68
2021/09/29 04:13:11;;;;;;;7.23;5.23;;;;;;;;;;4976865;28;20524;-69
2021/09/29 04:15:37;;;;;;;7.17;6.33;;;;;;;;;;4977009;28;20417;-69
2021/09/29 04:18:03;;;;;;;7.03;5.70;;;;;;;;;;4977050;28;20520;-69
2021/09/29 04:20:29;;;;;;;6.73;6.13;;;;;;;;;;4977069;28;20466;-69
2021/09/29 04:22:55;;;;;;;12.17;8.00;;;;;;;;;;4976914;28;20422;-69
2021/09/29 04:25:22;;;;;;;6.73;5.43;;;;;;;;;;4976749;28;20518;-69
2021/09/29 04:27:48;;;;;;;6.70;5.87;;;;;;;;;;4976599;28;20469;-70
2021/09/29 04:33:17;;;;;;;6.93;6.23;;;;;;;;;;4976702;28;20542;-69
2021/09/29 04:35:43;;;;;;;5.97;5.33;;;;;;;;;;4975501;28;20433;-69
2021/09/29 04:38:09;;;;;;;10.33;5.47;;;;;;;;;;4976596;28;20561;-69
2021/09/29 04:40:35;;;;;;;13.70;5.57;;;;;;;;;;4976470;28;20517;-69
2021/09/29 04:43:01;;;;;;;5.30;4.80;;;;;;;;;;4976358;28;20421;-69
2021/09/29 04:48:31;;;;;;;7.27;6.53;;;;;;;;;;4976474;28;20429;-68
2021/09/29 04:50:57;;;;;;;10.87;6.23;;;;;;;;;;4973682;28;20885;-68
2021/09/29 04:53:23;;;;;;;7.17;6.47;;;;;;;;;;4975792;28;20422;-68
2021/09/29 04:55:49;;;;;;;8.83;6.23;;;;;;;;;;4975621;28;20501;-68
2021/09/29 04:58:15;;;;;;;8.10;7.30;;;;;;;;;;4975898;28;20470;-68
2021/09/29 05:03:44;;;;;;;6.63;5.23;;;;;;;;;;4976119;28;20477;-69
2021/09/29 05:06:10;;;;;;;8.50;7.20;;;;;;;;;;4976056;28;20419;-69
2021/09/29 05:08:38;;;;;;;6.80;5.40;;;;;;;;;;4976062;28;20760;-69
2021/09/29 05:11:05;;;;;;;5.97;4.77;;;;;;;;;;4975847;28;20810;-69
2021/09/29 05:13:31;;;;;;;6.80;6.10;;;;;;;;;;4975975;28;20509;-69
2021/09/29 05:19:01;;;;;;;7.13;5.40;;;;;;;;;;4975775;28;20485;-69
2021/09/29 05:21:27;;;;;;;7.60;5.67;;;;;;;;;;4975835;28;20468;-68
2021/09/29 05:23:53;;;;;;;7.50;5.70;;;;;;;;;;4975778;28;20533;-72
2021/09/29 05:26:19;;;;;;;6.10;5.50;;;;;;;;;;4975575;28;20953;-69
2021/09/29 05:28:48;;;;;;;6.90;6.03;;;;;;;;;;4975665;28;20442;-68
2021/09/29 05:31:14;;;;;;;6.03;5.40;;;;;;;;;;4974237;28;20435;-69
2021/09/29 05:33:40;;;;;;;7.03;6.20;;;;;;;;;;4975657;28;20442;-69
2021/09/29 05:36:06;;;;;;;5.90;5.30;;;;;;;;;;4974317;28;20430;-68
2021/09/29 05:38:32;;;;;;;7.77;5.63;;;;;;;;;;4975345;28;20471;-69
2021/09/29 05:40:58;;;;;;;8.20;5.97;;;;;;;;;;4972578;28;20505;-69
2021/09/29 05:43:24;;;;;;;9.97;6.57;;;;;;;;;;4975351;28;20426;-69
2021/09/29 05:48:53;;;;;;;6.90;5.13;;;;;;;;;;4975128;28;20406;-69
2021/09/29 05:51:19;;;;;;;12.03;5.50;;;;;;;;;;4975445;28;20513;-70
2021/09/29 05:53:45;;;;;;;9.93;5.80;;;;;;;;;;4975046;28;20808;-68
2021/09/29 05:56:13;;;;;;;9.77;5.97;;;;;;;;;;4974865;28;20478;-69
2021/09/29 05:58:40;;;;;;;7.10;4.87;;;;;;;;;;4974842;28;20484;-69
2021/09/29 06:04:11;;;;;;;6.23;5.57;;;;;;;;;;4974639;28;20434;-68
2021/09/29 06:06:37;;;;;;;7.73;5.60;;;;;;;;;;4974758;28;20825;-69
2021/09/29 06:09:03;;;;;;;6.40;5.50;;;;;;;;;;4973363;28;20427;-69
2021/09/29 06:11:29;;;;;;;5.83;5.33;;;;;;;;;;4974469;28;20469;-69
2021/09/29 06:14:01;;;;;;;8.60;6.10;;;;;;;;;;4974902;28;20411;-69
2021/09/29 06:19:30;;;;;;;6.70;5.80;;;;;;;;;;4971444;28;20568;-69
2021/09/29 06:21:56;;;;;;;8.00;5.50;;;;;;;;;;4973048;28;20431;-70
2021/09/29 06:24:22;;;;;;;5.73;5.30;;;;;;;;;;4973346;28;20473;-68
2021/09/29 06:26:48;;;;;;;10.30;5.20;;;;;;;;;;4973325;28;20450;-69
2021/09/29 06:29:14;;;;;;;5.90;5.30;;;;;;;;;;4973096;28;20438;-69
2021/09/29 06:31:40;;;;;;;5.47;4.80;;;;;;;;;;4973216;28;20411;-68
2021/09/29 06:34:06;;;;;;;7.67;6.10;;;;;;;;;;4973478;28;20790;-68
2021/09/29 06:36:32;;;;;;;6.20;5.60;;;;;;;;;;4973041;28;20429;-69
2021/09/29 06:38:58;;;;;;;5.40;4.90;;;;;;;;;;4972790;28;20474;-69
2021/09/29 06:41:24;;;;;;;6.87;5.73;;;;;;;;;;4972835;28;20898;-70
2021/09/29 06:43:50;;;;;;;5.80;5.30;;;;;;;;;;4973442;28;20430;-69
2021/09/29 06:49:19;;;;;;;5.90;5.30;;;;;;;;;;4972955;28;20461;-70
2021/09/29 06:51:45;;;;;;;5.23;4.70;;;;;;;;;;4972997;28;20820;-69
2021/09/29 06:54:11;;;;;;;7.20;5.10;;;;;;;;;;4972808;28;20441;-68
2021/09/29 06:56:37;;;;;;;6.10;5.43;;;;;;;;;;4973149;28;20517;-70
2021/09/29 06:59:03;;;;;;;7.87;4.23;;;;;;;;;;4973058;28;20481;-70
2021/09/29 07:04:33;;;;;;;4.20;3.80;;;;;;;;;;4973264;28;20401;-68
2021/09/29 07:06:59;;;;;;;4.83;4.43;;;;;;;;;;4974140;28;20410;-68
2021/09/29 07:09:25;;;;;;;3.80;2.60;;;;;;;;;;4974833;28;20809;-68
2021/09/29 07:11:51;;;;;;;3.27;2.97;;;;;;;;;;4978047;28;20410;-68
2021/09/29 07:14:19;;;;;;;4.50;2.97;;;;;;;;;;4978232;28;20421;-68
2021/09/29 07:19:52;;;;;;;3.83;2.47;;;;;;;;;;4978026;28;20594;-68
2021/09/29 07:22:18;;;;;;;5.13;2.80;;;;;;;;;;4977847;28;20812;-68
2021/09/29 07:24:44;;;;;;;4.90;2.37;;;;;;;;;;4977831;28;20782;-68
2021/09/29 07:27:10;;;;;;;3.23;2.40;;;;;;;;;;4976522;28;20429;-69
2021/09/29 07:29:36;;;;;;;4.17;2.70;;;;;;;;;;4977366;28;20418;-70
2021/09/29 07:35:06;;;;;;;2.70;2.07;;;;;;;;;;4977256;28;20480;-68
2021/09/29 07:37:32;;;;;;;4.80;2.50;;;;;;;;;;4977026;28;20769;-70
2021/09/29 07:39:58;;;;;;;4.17;2.10;;;;;;;;;;4977109;28;20422;-69
2021/09/29 07:42:24;;;;;;;1.80;1.70;;;;;;;;;;4977225;28;20429;-72
2021/09/29 07:44:50;;;;;;;1.50;1.40;;;;;;;;;;4977452;28;20430;-70
2021/09/29 07:50:21;;;;;;;2.63;1.70;;;;;;;;;;4977277;28;20498;-70
2021/09/29 07:52:47;;;;;;;4.20;1.40;;;;;;;;;;4977456;28;20433;-71
2021/09/29 07:55:15;;;;;;;1.73;1.40;;;;;;;;;;4977034;28;20489;-72
2021/09/29 07:57:42;;;;;;;2.30;1.80;;;;;;;;;;4977019;28;20933;-72
2021/09/29 08:06:15;;;;;;;3.33;1.40;;;;;;;;;;4977090;28;20425;-70
2021/09/29 08:08:41;;;;;;;1.67;1.50;;;;;;;;;;4976938;28;20431;-71
2021/09/29 08:11:07;;;;;;;1.30;1.20;;;;;;;;;;4976784;28;20438;-69
2021/09/29 08:13:33;;;;;;;1.37;0.97;;;;;;;;;;4976900;28;20499;-70
2021/09/29 08:15:59;;;;;;;1.63;1.07;;;;;;;;;;4976796;28;20445;-70
2021/09/29 08:18:25;;;;;;;2.30;1.20;;;;;;;;;;4976756;28;20470;-71
2021/09/29 08:20:54;;;;;;;1.80;1.27;;;;;;;;;;4976578;28;20418;-69
2021/09/29 08:23:41;;;;;;;4.60;1.30;;;;;;;;;;4976906;28;20411;-71
2021/09/29 08:31:53;;;;;;;2.20;1.40;;;;;;;;;;4976698;28;20472;-69
2021/09/29 08:34:34;;;;;;;4.00;1.07;;;;;;;;;;4976704;28;20414;-71
2021/09/29 08:37:17;;;;;;;3.90;1.23;;;;;;;;;;4976263;28;20425;-70
2021/09/29 08:42:30;;;;;;;4.13;1.07;;;;;;;;;;4976368;28;20423;-68
2021/09/29 08:47:27;;;;;;;2.10;1.43;;;;;;;;;;4976393;28;20477;-70
2021/09/29 08:55:34;;;;;;;1.87;1.00;;;;;;;;;;4975842;28;21039;-69
2021/09/29 09:20:12;;;;;;;1.20;0.90;;;;;;;;;;4981253;28;20446;-71
2021/09/29 09:22:38;;;;;;;4.03;0.80;;;;;;;;;;4974615;28;20418;-71
2021/09/29 09:25:04;;;;;;;3.20;1.20;;;;;;;;;;4973183;28;20922;-70
2021/09/29 09:27:38;;;;;;;2.23;0.93;;;;;;;;;;4974365;28;20415;-69
2021/09/29 09:30:04;;;;;;;4.40;1.37;;;;;;;;;;4973066;28;20513;-69
2021/09/29 09:35:47;;;;;;;1.83;1.17;;;;;;;;;;4974276;28;20461;-71
2021/09/29 09:38:22;;;;;;;2.60;0.77;;;;;;;;;;4974174;28;20529;-72
2021/09/29 09:40:59;;;;;;;1.80;0.60;;;;;;;;;;4974485;28;20426;-69
2021/09/29 09:43:26;;;;;;;0.90;0.80;;;;;;;;;;4974127;28;20951;-69
2021/09/29 09:45:53;;;;;;;2.60;0.70;;;;;;;;;;4974105;28;20416;-72
2021/09/29 09:51:22;;;;;;;2.97;0.80;;;;;;;;;;4974042;28;20412;-72
2021/09/29 09:53:55;;;;;;;4.53;1.13;;;;;;;;;;4972919;28;20521;-69
2021/09/29 09:56:25;;;;;;;1.83;1.20;;;;;;;;;;4973783;28;20512;-73
2021/09/29 09:58:54;;;;;;;1.60;0.90;;;;;;;;;;4973970;28;20485;-73
2021/09/29 10:01:20;;;;;;;1.43;0.93;;;;;;;;;;4974281;28;20414;-73
2021/09/29 10:03:47;;;;;;;4.63;1.00;;;;;;;;;;4973950;28;20494;-73
2021/09/29 10:06:13;;;;;;;4.60;1.10;;;;;;;;;;4974107;28;20407;-72
2021/09/29 10:08:43;;;;;;;2.10;1.10;;;;;;;;;;4973934;28;20411;-72
2021/09/29 10:11:17;;;;;;;2.53;0.90;;;;;;;;;;4973629;28;20759;-73
2021/09/29 10:27:59;;;;;;;2.00;0.77;;;;;;;;;;4973535;28;20499;-71
2021/09/29 10:30:32;;;;;;;2.20;0.60;;;;;;;;;;4973527;28;20426;-69
2021/09/29 10:33:01;;;;;;;1.57;0.90;;;;;;;;;;4973358;28;20414;-68
2021/09/29 10:53:02;;;;;;;1.90;0.80;;;;;;;;;;4974424;28;20425;-70
2021/09/29 11:28:40;;;;;;;4.47;0.70;;;;;;;;;;4973778;28;20454;-70
2021/09/29 11:31:14;;;;;;;2.60;0.97;;;;;;;;;;4973579;28;20410;-69
2021/09/29 12:11:44;;;;;;;1.07;0.90;;;;;;;;;;4976922;28;20419;-69
2021/09/29 12:14:14;;;;;;;1.20;0.60;;;;;;;;;;4976768;28;20411;-72
2021/09/29 12:16:40;;;;;;;1.20;0.50;;;;;;;;;;4976635;28;20430;-68
2021/09/29 12:22:20;;;;;;;0.60;0.50;;;;;;;;;;4976853;28;20478;-68
2021/09/29 12:24:49;;;;;;;1.30;0.63;;;;;;;;;;4976979;28;20441;-69
2021/09/29 12:30:35;;;;;;;1.47;0.63;;;;;;;;;;4976406;28;20430;-70
2021/09/29 12:33:13;;;;;;;2.57;0.50;;;;;;;;;;4976586;28;20870;-69
2021/09/29 12:35:45;;;;;;;1.57;0.80;;;;;;;;;;4976627;28;20914;-69
2021/09/29 12:38:12;;;;;;;1.23;0.73;;;;;;;;;;4974202;28;20474;-67
2021/09/29 12:40:40;;;;;;;2.50;0.77;;;;;;;;;;4976158;28;20512;-69
2021/09/29 12:43:09;;;;;;;1.00;0.73;;;;;;;;;;4976262;28;20489;-70
2021/09/29 12:45:36;;;;;;;1.67;1.03;;;;;;;;;;4976262;28;20411;-71
2021/09/29 12:48:04;;;;;;;2.10;0.97;;;;;;;;;;4976485;28;20439;-69
2021/09/29 12:53:32;;;;;;;0.70;0.50;;;;;;;;;;4976531;28;20419;-70
2021/09/29 12:58:27;;;;;;;0.67;0.50;;;;;;;;;;4976122;28;20470;-69
2021/09/29 13:00:54;;;;;;;1.70;0.70;;;;;;;;;;4976318;28;20423;-68
2021/09/29 13:03:20;;;;;;;2.50;0.70;;;;;;;;;;4975214;28;20414;-68
2021/09/29 13:05:47;;;;;;;1.57;0.70;;;;;;;;;;4976364;28;20415;-69
2021/09/29 13:08:13;;;;;;;2.33;0.83;;;;;;;;;;4975111;28;20523;-69
2021/09/29 13:10:39;;;;;;;1.10;0.60;;;;;;;;;;4975931;28;20926;-68
2021/09/29 13:13:06;;;;;;;1.57;0.70;;;;;;;;;;4975914;28;20505;-71
2021/09/29 13:15:32;;;;;;;2.43;0.70;;;;;;;;;;4975893;28;20407;-68
2021/09/29 13:17:59;;;;;;;1.90;0.57;;;;;;;;;;4975696;28;20749;-67
2021/09/29 13:23:42;;;;;;;1.20;0.90;;;;;;;;;;4975765;28;20932;-68
2021/09/29 13:37:06;;;;;;;2.37;0.83;;;;;;;;;;4975379;28;20414;-68
2021/09/29 13:39:32;;;;;;;2.03;0.90;;;;;;;;;;4975592;28;20875;-68
2021/09/29 13:41:58;;;;;;;1.67;0.87;;;;;;;;;;4975228;28;20421;-67
2021/09/29 13:44:26;;;;;;;1.60;1.20;;;;;;;;;;4975144;28;20508;-72
2021/09/29 13:46:52;;;;;;;4.13;1.20;;;;;;;;;;4975212;28;20418;-68
2021/09/29 13:49:20;;;;;;;4.50;1.33;;;;;;;;;;4975375;28;20423;-71
2021/09/29 13:51:50;;;;;;;2.20;0.90;;;;;;;;;;4975028;28;20411;-69
2021/09/29 13:54:20;;;;;;;1.07;0.80;;;;;;;;;;4974859;28;20846;-69
2021/09/29 14:29:23;;;;;;;1.47;0.83;;;;;;;;;;4974872;28;20784;-69
2021/09/29 14:37:25;;;;;;;0.67;0.50;;;;;;;;;;4974497;28;20920;-69
2021/09/29 14:39:51;;;;;;;0.50;0.40;;;;;;;;;;4974680;28;20953;-69
2021/09/29 14:42:17;;;;;;;0.60;0.50;;;;;;;;;;4974580;28;20740;-69
2021/09/29 14:44:43;;;;;;;0.50;0.40;;;;;;;;;;4974461;28;20434;-68
2021/09/29 14:47:12;;;;;;;0.87;0.40;;;;;;;;;;4974313;28;20414;-70
2021/09/29 14:52:41;;;;;;;1.73;0.60;;;;;;;;;;4974195;28;20418;-68
2021/09/29 14:55:08;;;;;;;1.63;0.50;;;;;;;;;;4974038;28;20466;-68
2021/09/29 14:57:34;;;;;;;0.50;0.30;;;;;;;;;;4974108;28;20407;-68
2021/09/29 15:00:00;;;;;;;0.40;0.30;;;;;;;;;;4973997;28;20470;-68
2021/09/29 15:02:26;;;;;;;1.23;0.40;;;;;;;;;;4974089;28;20665;-70
2021/09/29 15:07:55;;;;;;;0.87;0.50;;;;;;;;;;4974169;28;20426;-70
2021/09/29 15:10:21;;;;;;;0.90;0.40;;;;;;;;;;4973102;28;20446;-68
2021/09/29 15:12:47;;;;;;;0.60;0.47;;;;;;;;;;4974012;28;20410;-70
2021/09/29 15:17:44;;;;;;;1.10;0.50;;;;;;;;;;4974132;28;20897;-69
2021/09/29 15:26:24;;;;;;;0.90;0.60;;;;;;;;;;4974105;28;20442;-69
2021/09/29 15:48:18;;;;;;;1.30;0.97;;;;;;;;;;4977734;28;20445;-69
2021/09/29 15:59:01;;;;;;;0.80;0.60;;;;;;;;;;4977445;28;20504;-69
2021/09/29 16:01:33;;;;;;;0.50;0.50;;;;;;;;;;4977392;28;20430;-68
2021/09/29 16:09:37;;;;;;;1.30;0.40;;;;;;;;;;4977359;28;20415;-69
2021/09/29 16:38:06;;;;;;;1.10;0.70;;;;;;;;;;4976545;28;20568;-70
2021/09/29 16:40:34;;;;;;;1.03;0.87;;;;;;;;;;4976771;28;20427;-72
2021/09/29 16:43:00;;;;;;;1.17;1.00;;;;;;;;;;4976391;28;20410;-71
2021/09/29 16:45:28;;;;;;;0.80;0.57;;;;;;;;;;4976200;28;20921;-69
2021/09/29 16:47:55;;;;;;;1.07;0.80;;;;;;;;;;4976714;28;20450;-70
2021/09/29 16:53:29;;;;;;;0.80;0.70;;;;;;;;;;4976428;28;20421;-69
2021/09/29 16:55:57;;;;;;;1.73;1.17;;;;;;;;;;4976086;28;20482;-68
2021/09/29 17:00:54;;;;;;;2.10;1.57;;;;;;;;;;4976413;28;20521;-69
2021/09/29 17:03:20;;;;;;;4.27;1.87;;;;;;;;;;4976427;28;20513;-69
2021/09/29 17:08:50;;;;;;;1.23;0.93;;;;;;;;;;4976083;28;20442;-68
2021/09/29 17:11:16;;;;;;;1.37;1.27;;;;;;;;;;4975907;28;20422;-69
2021/09/29 17:13:43;;;;;;;1.10;0.90;;;;;;;;;;4975997;28;20418;-68
2021/09/29 17:16:17;;;;;;;0.80;0.80;;;;;;;;;;4976015;28;20423;-69
2021/09/29 17:18:45;;;;;;;0.97;0.87;;;;;;;;;;4976000;28;20862;-69
2021/09/29 17:24:14;;;;;;;1.80;1.23;;;;;;;;;;4975663;28;20417;-69
2021/09/29 17:26:40;;;;;;;1.13;0.70;;;;;;;;;;4975416;28;20418;-69
2021/09/29 17:29:07;;;;;;;1.83;1.27;;;;;;;;;;4975558;28;20473;-69
2021/09/29 17:40:33;;;;;;;4.03;1.33;;;;;;;;;;4975382;28;20609;-68
2021/09/29 17:53:55;;;;;;;1.27;0.77;;;;;;;;;;4981175;28;20523;-68
2021/09/29 17:56:21;;;;;;;0.83;0.70;;;;;;;;;;4975002;28;20466;-70
2021/09/29 17:58:48;;;;;;;0.87;0.70;;;;;;;;;;4974113;28;20485;-69
2021/09/29 18:01:20;;;;;;;0.80;0.60;;;;;;;;;;4975186;28;20419;-70
2021/09/29 18:04:06;;;;;;;1.27;0.80;;;;;;;;;;4975556;28;20753;-70
2021/09/29 18:06:38;;;;;;;1.03;0.93;;;;;;;;;;4974057;28;20922;-69
2021/09/29 18:09:04;;;;;;;2.90;1.00;;;;;;;;;;4975385;28;20426;-70
2021/09/29 18:11:31;;;;;;;1.50;0.70;;;;;;;;;;4971758;28;20419;-68
2021/09/29 18:13:57;;;;;;;1.10;0.77;;;;;;;;;;4971131;28;20441;-70
2021/09/29 18:16:24;;;;;;;1.73;0.70;;;;;;;;;;4973713;28;20418;-70
2021/09/29 18:18:50;;;;;;;0.80;0.80;;;;;;;;;;4974248;28;20473;-70
2021/09/29 18:21:16;;;;;;;1.10;1.00;;;;;;;;;;4973043;28;20434;-69
2021/09/29 18:23:43;;;;;;;1.10;1.00;;;;;;;;;;4974939;28;20406;-69
2021/09/29 18:26:10;;;;;;;1.03;0.90;;;;;;;;;;4974959;28;20441;-68
2021/09/29 18:28:40;;;;;;;1.03;0.93;;;;;;;;;;4974928;28;20414;-68
2021/09/29 18:31:06;;;;;;;1.13;1.03;;;;;;;;;;4974702;28;20426;-67
2021/09/29 18:33:34;;;;;;;2.17;1.00;;;;;;;;;;4974855;28;20414;-67
2021/09/29 18:36:06;;;;;;;1.20;0.67;;;;;;;;;;4974714;28;20508;-68
2021/09/29 18:38:32;;;;;;;1.33;0.80;;;;;;;;;;4974904;28;20470;-69
2021/09/29 18:41:04;;;;;;;0.90;0.70;;;;;;;;;;4974791;28;20497;-70
2021/09/29 18:43:30;;;;;;;0.70;0.70;;;;;;;;;;4974684;28;20458;-68
2021/09/29 18:45:56;;;;;;;1.33;0.90;;;;;;;;;;4974719;28;20419;-70
2021/09/29 18:48:22;;;;;;;0.97;0.80;;;;;;;;;;4974538;28;20417;-69
2021/09/29 18:50:48;;;;;;;2.17;0.70;;;;;;;;;;4974580;28;20773;-69
2021/09/29 18:53:15;;;;;;;0.73;0.73;;;;;;;;;;4974197;28;20988;-68
2021/09/29 18:55:51;;;;;;;0.83;0.83;;;;;;;;;;4974152;28;20814;-69
2021/09/29 19:09:28;;;;;;;1.70;0.80;;;;;;;;;;4973150;28;20546;-68
2021/09/29 19:11:54;;;;;;;2.00;1.00;;;;;;;;;;4971029;28;20916;-69
2021/09/29 19:14:20;;;;;;;1.10;1.00;;;;;;;;;;4973295;28;20433;-69
2021/09/29 19:16:45;;;;;;;1.80;1.00;;;;;;;;;;4973262;28;20509;-70
2021/09/29 19:19:11;;;;;;;2.53;0.83;;;;;;;;;;4971808;28;20489;-70
2021/09/29 19:21:40;;;;;;;1.70;0.70;;;;;;;;;;4972817;28;20411;-70
2021/09/29 19:24:06;;;;;;;2.80;1.17;;;;;;;;;;4971587;28;20458;-68
2021/09/29 19:26:32;;;;;;;1.87;1.33;;;;;;;;;;4971065;28;20457;-70
2021/09/29 19:28:59;;;;;;;2.50;1.17;;;;;;;;;;4971162;28;20910;-69
2021/09/29 19:31:27;;;;;;;2.00;0.90;;;;;;;;;;4972691;28;20414;-69
2021/09/29 19:33:53;;;;;;;5.03;1.07;;;;;;;;;;4972896;28;20453;-68
2021/09/29 19:36:20;;;;;;;1.40;1.03;;;;;;;;;;4972688;28;20469;-68
2021/09/29 19:41:50;;;;;;;2.27;1.00;;;;;;;;;;4972402;28;20908;-68
2021/09/29 19:44:20;;;;;;;3.90;1.03;;;;;;;;;;4972731;28;20906;-68
2021/09/29 19:46:50;;;;;;;1.43;0.80;;;;;;;;;;4972901;28;20419;-68
2021/09/29 20:07:53;;;;;;;2.77;0.90;;;;;;;;;;4972383;28;20422;-70
2021/09/29 20:10:20;;;;;;;2.43;1.20;;;;;;;;;;4972129;28;20430;-70
2021/09/29 20:12:48;;;;;;;1.03;0.90;;;;;;;;;;4972601;28;20765;-68
2021/09/29 20:15:16;;;;;;;2.83;1.20;;;;;;;;;;4971069;28;20891;-69
2021/09/29 20:17:43;;;;;;;1.03;0.80;;;;;;;;;;4974739;28;20944;-70
2021/09/29 20:20:18;;;;;;;1.10;0.97;;;;;;;;;;4975676;28;21045;-69
2021/09/29 20:22:45;;;;;;;1.67;1.00;;;;;;;;;;4974480;28;20457;-69
2021/09/29 20:25:12;;;;;;;1.93;0.90;;;;;;;;;;4975559;28;20434;-69
2021/09/29 20:27:38;;;;;;;1.33;0.93;;;;;;;;;;4974076;28;20437;-68
2021/09/29 20:30:05;;;;;;;0.80;0.60;;;;;;;;;;4976624;28;20532;-71
2021/09/29 20:32:31;;;;;;;1.70;1.10;;;;;;;;;;4976687;28;20410;-68
2021/09/29 20:43:12;;;;;;;2.43;1.20;;;;;;;;;;4976540;28;20784;-69
2021/09/29 20:45:39;;;;;;;2.27;1.10;;;;;;;;;;4976404;28;20810;-68
2021/09/29 20:48:05;;;;;;;3.53;1.27;;;;;;;;;;4976313;28;20445;-70
2021/09/29 20:50:31;;;;;;;2.27;1.27;;;;;;;;;;4976453;28;20459;-68
2021/09/29 20:52:57;;;;;;;2.10;0.90;;;;;;;;;;4976414;28;20415;-70
2021/09/29 20:55:25;;;;;;;1.60;0.83;;;;;;;;;;4974896;28;20489;-71
2021/09/29 20:57:52;;;;;;;1.40;1.07;;;;;;;;;;4975993;28;20411;-69
2021/09/29 21:00:18;;;;;;;2.80;1.13;;;;;;;;;;4975931;28;20479;-70
2021/09/29 21:02:46;;;;;;;5.60;0.80;;;;;;;;;;4976173;28;20849;-69
2021/09/29 21:05:20;;;;;;;1.97;1.20;;;;;;;;;;4976268;28;20509;-70
2021/09/29 21:07:48;;;;;;;1.90;0.80;;;;;;;;;;4976266;28;20406;-70
2021/09/29 21:10:18;;;;;;;2.40;1.00;;;;;;;;;;4975255;28;20572;-69
2021/09/29 21:12:48;;;;;;;1.63;1.20;;;;;;;;;;4975614;28;20429;-70
2021/09/29 21:20:28;;;;;;;2.17;0.80;;;;;;;;;;4975761;28;20464;-70
2021/09/29 21:22:54;;;;;;;1.03;0.70;;;;;;;;;;4975465;28;20410;-69
2021/09/29 21:25:21;;;;;;;1.17;0.80;;;;;;;;;;4975546;28;20485;-69
2021/09/29 21:27:47;;;;;;;0.57;0.57;;;;;;;;;;4973381;28;20845;-69
2021/09/29 21:30:13;;;;;;;1.60;1.23;;;;;;;;;;4975576;28;20817;-69
2021/09/29 21:32:39;;;;;;;1.00;0.73;;;;;;;;;;4975369;28;20426;-68
2021/09/29 21:35:12;;;;;;;1.37;1.07;;;;;;;;;;4975370;28;20442;-70
2021/09/29 22:18:40;;;;;;;2.30;0.80;;;;;;;;;;4974839;28;20417;-69
2021/09/29 23:00:20;;;;;;;1.37;0.83;;;;;;;;;;4974496;28;20480;-69
2021/09/29 23:07:39;;;;;;;1.10;0.70;;;;;;;;;;4980672;28;20424;-69
2021/09/29 23:10:14;;;;;;;2.07;0.73;;;;;;;;;;4974294;28;20825;-68
2021/09/29 23:12:48;;;;;;;2.20;0.87;;;;;;;;;;4974129;28;20421;-69
2021/09/29 23:34:27;;;;;;;1.47;1.10;;;;;;;;;;4973852;28;20744;-69
2021/09/29 23:36:54;;;;;;;2.40;0.90;;;;;;;;;;4973938;28;20452;-68
2021/09/29 23:42:24;;;;;;;3.63;0.93;;;;;;;;;;4973544;28;20421;-68
2021/09/29 23:44:51;;;;;;;3.07;1.07;;;;;;;;;;4973801;28;20413;-69
2021/09/29 23:47:17;;;;;;;4.97;1.13;;;;;;;;;;4973918;28;20747;-68
2021/09/29 23:49:43;;;;;;;2.37;0.87;;;;;;;;;;4973717;28;20743;-69
2021/09/29 23:52:09;;;;;;;2.20;0.77;;;;;;;;;;4975828;28;20550;-68